sensor_id;sensor_type;location;lat;lon;timestamp;temperature;humidity
23544;DHT22;11950;51.230;4.012;2023-03-07T00:02:15;8.30;99.90
23544;DHT22;11950;51.230;4.012;2023-03-07T00:04:45;8.30;99.90
23544;DHT22;11950;51.230;4.012;2023-03-07T00:07:12;8.30;99.90
23544;DHT22;11950;51.230;4.012;2023-03-07T00:09:38;8.30;99.90
23544;DHT22;11950;51.230;4.012;2023-03-07T00:12:06;8.30;99.90
23544;DHT22;11950;51.230;4.012;2023-03-07T00:14:32;8.30;99.90
23544;DHT22;11950;51.230;4.012;2023-03-07T00:16:58;8.30;99.90
23544;DHT22;11950;51.230;4.012;2023-03-07T00:19:24;8.30;99.90
23544;DHT22;11950;51.230;4.012;2023-03-07T00:21:51;8.30;99.90
23544;DHT22;11950;51.230;4.012;2023-03-07T00:24:17;8.30;99.90
23544;DHT22;11950;51.230;4.012;2023-03-07T00:26:43;8.30;99.90
23544;DHT22;11950;51.230;4.012;2023-03-07T00:29:10;8.30;99.90
23544;DHT22;11950;51.230;4.012;2023-03-07T00:31:36;8.30;99.90
23544;DHT22;11950;51.230;4.012;2023-03-07T00:34:03;8.30;99.90
23544;DHT22;11950;51.230;4.012;2023-03-07T00:36:30;8.30;99.90
23544;DHT22;11950;51.230;4.012;2023-03-07T00:38:56;8.30;99.90
23544;DHT22;11950;51.230;4.012;2023-03-07T00:41:25;8.30;99.90
23544;DHT22;11950;51.230;4.012;2023-03-07T00:43:52;8.30;99.90
23544;DHT22;11950;51.230;4.012;2023-03-07T00:46:20;8.20;99.90
23544;DHT22;11950;51.230;4.012;2023-03-07T00:48:47;8.30;99.90
23544;DHT22;11950;51.230;4.012;2023-03-07T00:51:16;8.30;99.90
23544;DHT22;11950;51.230;4.012;2023-03-07T00:53:43;8.30;99.90
23544;DHT22;11950;51.230;4.012;2023-03-07T00:56:16;8.30;99.90
23544;DHT22;11950;51.230;4.012;2023-03-07T00:58:44;8.30;99.90
23544;DHT22;11950;51.230;4.012;2023-03-07T01:01:13;8.30;99.90
23544;DHT22;11950;51.230;4.012;2023-03-07T01:03:40;8.30;99.90
23544;DHT22;11950;51.230;4.012;2023-03-07T01:06:10;8.30;99.90
23544;DHT22;11950;51.230;4.012;2023-03-07T01:08:37;8.30;99.90
23544;DHT22;11950;51.230;4.012;2023-03-07T01:11:05;8.20;99.90
23544;DHT22;11950;51.230;4.012;2023-03-07T01:13:33;8.20;99.90
23544;DHT22;11950;51.230;4.012;2023-03-07T01:18:43;8.20;99.90
23544;DHT22;11950;51.230;4.012;2023-03-07T01:21:19;8.20;99.90
23544;DHT22;11950;51.230;4.012;2023-03-07T01:23:46;8.20;99.90
23544;DHT22;11950;51.230;4.012;2023-03-07T01:26:26;8.20;99.90
23544;DHT22;11950;51.230;4.012;2023-03-07T01:28:56;8.20;99.90
23544;DHT22;11950;51.230;4.012;2023-03-07T01:31:23;8.20;99.90
23544;DHT22;11950;51.230;4.012;2023-03-07T01:33:51;8.20;99.90
23544;DHT22;11950;51.230;4.012;2023-03-07T01:36:22;8.20;99.90
23544;DHT22;11950;51.230;4.012;2023-03-07T01:38:54;8.10;99.90
23544;DHT22;11950;51.230;4.012;2023-03-07T01:41:21;8.10;99.90
23544;DHT22;11950;51.230;4.012;2023-03-07T01:43:50;8.10;99.90
23544;DHT22;11950;51.230;4.012;2023-03-07T01:46:26;8.10;99.90
23544;DHT22;11950;51.230;4.012;2023-03-07T01:49:38;8.10;99.90
23544;DHT22;11950;51.230;4.012;2023-03-07T01:54:38;8.10;99.90
23544;DHT22;11950;51.230;4.012;2023-03-07T01:57:06;8.10;99.90
23544;DHT22;11950;51.230;4.012;2023-03-07T01:59:38;8.10;99.90
23544;DHT22;11950;51.230;4.012;2023-03-07T02:02:10;8.10;99.90
23544;DHT22;11950;51.230;4.012;2023-03-07T02:04:48;8.10;99.90
23544;DHT22;11950;51.230;4.012;2023-03-07T02:07:20;8.10;99.90
23544;DHT22;11950;51.230;4.012;2023-03-07T02:09:48;8.10;99.90
23544;DHT22;11950;51.230;4.012;2023-03-07T02:12:15;8.10;99.90
23544;DHT22;11950;51.230;4.012;2023-03-07T02:14:43;8.10;99.90
23544;DHT22;11950;51.230;4.012;2023-03-07T02:17:11;8.10;99.90
23544;DHT22;11950;51.230;4.012;2023-03-07T02:19:57;8.10;99.90
23544;DHT22;11950;51.230;4.012;2023-03-07T02:22:28;8.10;99.90
23544;DHT22;11950;51.230;4.012;2023-03-07T02:25:02;8.10;99.90
23544;DHT22;11950;51.230;4.012;2023-03-07T02:27:33;8.10;99.90
23544;DHT22;11950;51.230;4.012;2023-03-07T02:30:03;8.10;99.90
23544;DHT22;11950;51.230;4.012;2023-03-07T02:32:30;8.10;99.90
23544;DHT22;11950;51.230;4.012;2023-03-07T02:34:56;8.10;99.90
23544;DHT22;11950;51.230;4.012;2023-03-07T02:37:28;8.10;99.90
23544;DHT22;11950;51.230;4.012;2023-03-07T02:39:57;8.10;99.90
23544;DHT22;11950;51.230;4.012;2023-03-07T02:42:28;8.10;99.90
23544;DHT22;11950;51.230;4.012;2023-03-07T02:45:05;8.10;99.90
23544;DHT22;11950;51.230;4.012;2023-03-07T02:47:35;8.10;99.90
23544;DHT22;11950;51.230;4.012;2023-03-07T02:50:02;8.10;99.90
23544;DHT22;11950;51.230;4.012;2023-03-07T02:52:29;8.10;99.90
23544;DHT22;11950;51.230;4.012;2023-03-07T02:54:56;8.10;99.90
23544;DHT22;11950;51.230;4.012;2023-03-07T02:57:26;8.10;99.90
23544;DHT22;11950;51.230;4.012;2023-03-07T02:59:53;8.10;99.90
23544;DHT22;11950;51.230;4.012;2023-03-07T03:02:19;8.10;99.90
23544;DHT22;11950;51.230;4.012;2023-03-07T03:04:45;8.10;99.90
23544;DHT22;11950;51.230;4.012;2023-03-07T03:07:13;8.10;99.90
23544;DHT22;11950;51.230;4.012;2023-03-07T03:09:39;8.10;99.90
23544;DHT22;11950;51.230;4.012;2023-03-07T03:12:06;8.10;99.90
23544;DHT22;11950;51.230;4.012;2023-03-07T03:14:33;8.00;99.90
23544;DHT22;11950;51.230;4.012;2023-03-07T03:17:00;8.00;99.90
23544;DHT22;11950;51.230;4.012;2023-03-07T03:19:28;8.00;99.90
23544;DHT22;11950;51.230;4.012;2023-03-07T03:21:55;8.00;99.90
23544;DHT22;11950;51.230;4.012;2023-03-07T03:24:21;8.00;99.90
23544;DHT22;11950;51.230;4.012;2023-03-07T03:26:48;8.00;99.90
23544;DHT22;11950;51.230;4.012;2023-03-07T03:29:17;8.00;99.90
23544;DHT22;11950;51.230;4.012;2023-03-07T03:31:44;8.00;99.90
23544;DHT22;11950;51.230;4.012;2023-03-07T03:34:10;8.00;99.90
23544;DHT22;11950;51.230;4.012;2023-03-07T03:36:37;7.90;99.90
23544;DHT22;11950;51.230;4.012;2023-03-07T03:39:07;8.00;99.90
23544;DHT22;11950;51.230;4.012;2023-03-07T03:41:38;8.00;99.90
23544;DHT22;11950;51.230;4.012;2023-03-07T03:44:04;8.00;99.90
23544;DHT22;11950;51.230;4.012;2023-03-07T03:46:31;8.00;99.90
23544;DHT22;11950;51.230;4.012;2023-03-07T03:48:59;8.00;99.90
23544;DHT22;11950;51.230;4.012;2023-03-07T03:51:27;8.00;99.90
23544;DHT22;11950;51.230;4.012;2023-03-07T03:53:55;8.10;99.90
23544;DHT22;11950;51.230;4.012;2023-03-07T03:56:24;8.10;99.90
23544;DHT22;11950;51.230;4.012;2023-03-07T03:58:53;8.00;99.90
23544;DHT22;11950;51.230;4.012;2023-03-07T04:01:22;8.10;99.90
23544;DHT22;11950;51.230;4.012;2023-03-07T04:03:50;8.10;99.90
23544;DHT22;11950;51.230;4.012;2023-03-07T04:06:23;8.10;99.90
23544;DHT22;11950;51.230;4.012;2023-03-07T04:08:50;8.10;99.90
23544;DHT22;11950;51.230;4.012;2023-03-07T04:11:18;8.10;99.90
23544;DHT22;11950;51.230;4.012;2023-03-07T04:13:45;8.10;99.90
23544;DHT22;11950;51.230;4.012;2023-03-07T04:16:13;8.00;99.90
23544;DHT22;11950;51.230;4.012;2023-03-07T04:18:39;8.10;99.90
23544;DHT22;11950;51.230;4.012;2023-03-07T04:21:06;8.10;99.90
23544;DHT22;11950;51.230;4.012;2023-03-07T04:23:33;8.10;99.90
23544;DHT22;11950;51.230;4.012;2023-03-07T04:26:01;8.00;99.90
23544;DHT22;11950;51.230;4.012;2023-03-07T04:28:34;8.10;99.90
23544;DHT22;11950;51.230;4.012;2023-03-07T04:31:32;8.00;99.90
23544;DHT22;11950;51.230;4.012;2023-03-07T04:34:01;8.00;99.90
23544;DHT22;11950;51.230;4.012;2023-03-07T04:36:28;8.10;99.90
23544;DHT22;11950;51.230;4.012;2023-03-07T04:38:54;8.10;99.90
23544;DHT22;11950;51.230;4.012;2023-03-07T04:41:23;8.10;99.90
23544;DHT22;11950;51.230;4.012;2023-03-07T04:44:04;8.10;99.90
23544;DHT22;11950;51.230;4.012;2023-03-07T04:46:31;8.10;99.90
23544;DHT22;11950;51.230;4.012;2023-03-07T04:48:57;8.00;99.90
23544;DHT22;11950;51.230;4.012;2023-03-07T04:51:24;8.10;99.90
23544;DHT22;11950;51.230;4.012;2023-03-07T04:53:50;8.10;99.90
23544;DHT22;11950;51.230;4.012;2023-03-07T04:56:17;8.10;99.90
23544;DHT22;11950;51.230;4.012;2023-03-07T04:58:45;8.10;99.90
23544;DHT22;11950;51.230;4.012;2023-03-07T05:01:12;8.10;99.90
23544;DHT22;11950;51.230;4.012;2023-03-07T05:03:38;8.10;99.90
23544;DHT22;11950;51.230;4.012;2023-03-07T05:06:08;8.20;99.90
23544;DHT22;11950;51.230;4.012;2023-03-07T05:08:35;8.10;99.90
23544;DHT22;11950;51.230;4.012;2023-03-07T05:11:02;8.10;99.90
23544;DHT22;11950;51.230;4.012;2023-03-07T05:13:29;8.10;99.90
23544;DHT22;11950;51.230;4.012;2023-03-07T05:15:57;8.10;99.90
23544;DHT22;11950;51.230;4.012;2023-03-07T05:18:25;8.10;99.90
23544;DHT22;11950;51.230;4.012;2023-03-07T05:20:52;8.20;99.90
23544;DHT22;11950;51.230;4.012;2023-03-07T05:23:19;8.10;99.90
23544;DHT22;11950;51.230;4.012;2023-03-07T05:25:49;8.20;99.90
23544;DHT22;11950;51.230;4.012;2023-03-07T05:28:16;8.10;99.90
23544;DHT22;11950;51.230;4.012;2023-03-07T05:30:44;8.10;99.90
23544;DHT22;11950;51.230;4.012;2023-03-07T05:33:10;8.10;99.90
23544;DHT22;11950;51.230;4.012;2023-03-07T05:35:37;8.10;99.90
23544;DHT22;11950;51.230;4.012;2023-03-07T05:38:06;8.20;99.90
23544;DHT22;11950;51.230;4.012;2023-03-07T05:40:33;8.10;99.90
23544;DHT22;11950;51.230;4.012;2023-03-07T05:43:00;8.10;99.90
23544;DHT22;11950;51.230;4.012;2023-03-07T05:45:26;8.20;99.90
23544;DHT22;11950;51.230;4.012;2023-03-07T05:47:53;8.10;99.90
23544;DHT22;11950;51.230;4.012;2023-03-07T05:50:19;8.10;99.90
23544;DHT22;11950;51.230;4.012;2023-03-07T05:52:47;8.10;99.90
23544;DHT22;11950;51.230;4.012;2023-03-07T05:55:13;8.10;99.90
23544;DHT22;11950;51.230;4.012;2023-03-07T05:57:40;8.10;99.90
23544;DHT22;11950;51.230;4.012;2023-03-07T06:00:07;8.10;99.90
23544;DHT22;11950;51.230;4.012;2023-03-07T06:02:40;8.10;99.90
23544;DHT22;11950;51.230;4.012;2023-03-07T06:05:09;8.10;99.90
23544;DHT22;11950;51.230;4.012;2023-03-07T06:07:35;8.10;99.90
23544;DHT22;11950;51.230;4.012;2023-03-07T06:10:02;8.10;99.90
23544;DHT22;11950;51.230;4.012;2023-03-07T06:12:29;8.10;99.90
23544;DHT22;11950;51.230;4.012;2023-03-07T06:14:55;8.10;99.90
23544;DHT22;11950;51.230;4.012;2023-03-07T06:17:21;8.20;99.90
23544;DHT22;11950;51.230;4.012;2023-03-07T06:19:48;8.20;99.90
23544;DHT22;11950;51.230;4.012;2023-03-07T06:22:14;8.20;99.90
23544;DHT22;11950;51.230;4.012;2023-03-07T06:24:41;8.20;99.90
23544;DHT22;11950;51.230;4.012;2023-03-07T06:27:09;8.20;99.90
23544;DHT22;11950;51.230;4.012;2023-03-07T06:29:36;8.20;99.90
23544;DHT22;11950;51.230;4.012;2023-03-07T06:32:03;8.20;99.90
23544;DHT22;11950;51.230;4.012;2023-03-07T06:34:30;8.10;99.90
23544;DHT22;11950;51.230;4.012;2023-03-07T06:36:57;8.00;99.90
23544;DHT22;11950;51.230;4.012;2023-03-07T06:39:24;7.90;99.90
23544;DHT22;11950;51.230;4.012;2023-03-07T06:41:53;7.90;99.90
23544;DHT22;11950;51.230;4.012;2023-03-07T06:44:19;7.90;99.90
23544;DHT22;11950;51.230;4.012;2023-03-07T06:46:46;7.90;99.90
23544;DHT22;11950;51.230;4.012;2023-03-07T06:49:15;7.90;99.90
23544;DHT22;11950;51.230;4.012;2023-03-07T06:51:45;7.90;99.90
23544;DHT22;11950;51.230;4.012;2023-03-07T06:54:11;7.80;99.90
23544;DHT22;11950;51.230;4.012;2023-03-07T06:56:38;7.80;99.90
23544;DHT22;11950;51.230;4.012;2023-03-07T06:59:05;7.80;99.90
23544;DHT22;11950;51.230;4.012;2023-03-07T07:01:31;7.80;99.90
23544;DHT22;11950;51.230;4.012;2023-03-07T07:03:59;7.80;99.90
23544;DHT22;11950;51.230;4.012;2023-03-07T07:06:27;7.80;99.90
23544;DHT22;11950;51.230;4.012;2023-03-07T07:08:58;7.80;99.90
23544;DHT22;11950;51.230;4.012;2023-03-07T07:11:28;7.80;99.90
23544;DHT22;11950;51.230;4.012;2023-03-07T07:13:55;7.80;99.90
23544;DHT22;11950;51.230;4.012;2023-03-07T07:16:22;7.80;99.90
23544;DHT22;11950;51.230;4.012;2023-03-07T07:18:50;7.80;99.90
23544;DHT22;11950;51.230;4.012;2023-03-07T07:21:20;7.80;99.90
23544;DHT22;11950;51.230;4.012;2023-03-07T07:23:47;7.80;99.90
23544;DHT22;11950;51.230;4.012;2023-03-07T07:26:14;7.80;99.90
23544;DHT22;11950;51.230;4.012;2023-03-07T07:28:40;7.80;99.90
23544;DHT22;11950;51.230;4.012;2023-03-07T07:31:08;7.80;99.90
23544;DHT22;11950;51.230;4.012;2023-03-07T07:33:35;7.80;99.90
23544;DHT22;11950;51.230;4.012;2023-03-07T07:36:05;7.90;99.90
23544;DHT22;11950;51.230;4.012;2023-03-07T07:38:34;7.80;99.90
23544;DHT22;11950;51.230;4.012;2023-03-07T07:41:01;7.90;99.90
23544;DHT22;11950;51.230;4.012;2023-03-07T07:43:28;7.90;99.90
23544;DHT22;11950;51.230;4.012;2023-03-07T07:46:04;7.90;99.90
23544;DHT22;11950;51.230;4.012;2023-03-07T07:48:31;7.80;99.90
23544;DHT22;11950;51.230;4.012;2023-03-07T07:51:02;7.70;99.90
23544;DHT22;11950;51.230;4.012;2023-03-07T07:53:30;7.70;99.90
23544;DHT22;11950;51.230;4.012;2023-03-07T07:55:57;7.60;99.90
23544;DHT22;11950;51.230;4.012;2023-03-07T07:58:24;7.60;99.90
23544;DHT22;11950;51.230;4.012;2023-03-07T08:00:51;7.60;99.90
23544;DHT22;11950;51.230;4.012;2023-03-07T08:03:17;7.50;99.90
23544;DHT22;11950;51.230;4.012;2023-03-07T08:05:44;7.40;99.90
23544;DHT22;11950;51.230;4.012;2023-03-07T08:08:14;7.40;99.90
23544;DHT22;11950;51.230;4.012;2023-03-07T08:10:42;7.40;99.90
23544;DHT22;11950;51.230;4.012;2023-03-07T08:13:14;7.30;99.90
23544;DHT22;11950;51.230;4.012;2023-03-07T08:15:41;7.30;99.90
23544;DHT22;11950;51.230;4.012;2023-03-07T08:18:08;7.30;99.90
23544;DHT22;11950;51.230;4.012;2023-03-07T08:20:36;7.30;99.90
23544;DHT22;11950;51.230;4.012;2023-03-07T08:23:03;7.30;99.90
23544;DHT22;11950;51.230;4.012;2023-03-07T08:25:30;7.30;99.90
23544;DHT22;11950;51.230;4.012;2023-03-07T08:27:56;7.20;99.90
23544;DHT22;11950;51.230;4.012;2023-03-07T08:30:25;7.20;99.90
23544;DHT22;11950;51.230;4.012;2023-03-07T08:32:52;7.20;99.90
23544;DHT22;11950;51.230;4.012;2023-03-07T08:35:19;7.10;99.90
23544;DHT22;11950;51.230;4.012;2023-03-07T08:37:46;7.10;99.90
23544;DHT22;11950;51.230;4.012;2023-03-07T08:40:15;7.10;99.90
23544;DHT22;11950;51.230;4.012;2023-03-07T08:42:42;7.10;99.90
23544;DHT22;11950;51.230;4.012;2023-03-07T08:45:08;7.10;99.90
23544;DHT22;11950;51.230;4.012;2023-03-07T08:47:35;7.20;99.90
23544;DHT22;11950;51.230;4.012;2023-03-07T08:50:03;7.20;99.90
23544;DHT22;11950;51.230;4.012;2023-03-07T08:52:30;7.20;99.90
23544;DHT22;11950;51.230;4.012;2023-03-07T08:54:56;7.20;99.90
23544;DHT22;11950;51.230;4.012;2023-03-07T08:57:22;7.10;99.90
23544;DHT22;11950;51.230;4.012;2023-03-07T08:59:49;7.10;99.90
23544;DHT22;11950;51.230;4.012;2023-03-07T09:02:16;7.10;99.90
23544;DHT22;11950;51.230;4.012;2023-03-07T09:04:42;7.10;99.90
23544;DHT22;11950;51.230;4.012;2023-03-07T09:07:10;7.10;99.90
23544;DHT22;11950;51.230;4.012;2023-03-07T09:09:37;7.10;99.90
23544;DHT22;11950;51.230;4.012;2023-03-07T09:12:03;7.10;99.90
23544;DHT22;11950;51.230;4.012;2023-03-07T09:14:30;7.10;99.90
23544;DHT22;11950;51.230;4.012;2023-03-07T09:16:56;7.10;99.90
23544;DHT22;11950;51.230;4.012;2023-03-07T09:19:23;7.10;99.90
23544;DHT22;11950;51.230;4.012;2023-03-07T09:21:49;7.10;99.90
23544;DHT22;11950;51.230;4.012;2023-03-07T09:24:15;7.20;99.90
23544;DHT22;11950;51.230;4.012;2023-03-07T09:26:42;7.20;99.90
23544;DHT22;11950;51.230;4.012;2023-03-07T09:29:08;7.20;99.90
23544;DHT22;11950;51.230;4.012;2023-03-07T09:31:34;7.20;99.90
23544;DHT22;11950;51.230;4.012;2023-03-07T09:34:01;7.30;99.90
23544;DHT22;11950;51.230;4.012;2023-03-07T09:36:27;7.20;99.90
23544;DHT22;11950;51.230;4.012;2023-03-07T09:38:55;7.10;99.90
23544;DHT22;11950;51.230;4.012;2023-03-07T09:41:41;7.20;99.90
23544;DHT22;11950;51.230;4.012;2023-03-07T09:44:35;7.10;99.90
23544;DHT22;11950;51.230;4.012;2023-03-07T09:56:23;7.00;99.90
23544;DHT22;11950;51.230;4.012;2023-03-07T09:58:56;7.00;99.90
23544;DHT22;11950;51.230;4.012;2023-03-07T10:01:28;7.00;99.90
23544;DHT22;11950;51.230;4.012;2023-03-07T10:04:03;7.00;99.90
23544;DHT22;11950;51.230;4.012;2023-03-07T10:06:40;7.00;99.90
23544;DHT22;11950;51.230;4.012;2023-03-07T10:09:16;7.00;99.90
23544;DHT22;11950;51.230;4.012;2023-03-07T10:20:05;7.10;99.90
23544;DHT22;11950;51.230;4.012;2023-03-07T10:22:51;7.10;99.90
23544;DHT22;11950;51.230;4.012;2023-03-07T10:25:45;7.00;99.90
23544;DHT22;11950;51.230;4.012;2023-03-07T10:28:21;7.10;99.90
23544;DHT22;11950;51.230;4.012;2023-03-07T10:30:57;7.10;99.90
23544;DHT22;11950;51.230;4.012;2023-03-07T10:33:24;7.10;99.90
23544;DHT22;11950;51.230;4.012;2023-03-07T10:36:05;7.10;99.90
23544;DHT22;11950;51.230;4.012;2023-03-07T10:38:59;7.10;99.90
23544;DHT22;11950;51.230;4.012;2023-03-07T10:41:27;7.10;99.90
23544;DHT22;11950;51.230;4.012;2023-03-07T10:43:54;7.10;99.90
23544;DHT22;11950;51.230;4.012;2023-03-07T10:46:25;7.20;99.90
23544;DHT22;11950;51.230;4.012;2023-03-07T10:49:17;7.20;99.90
23544;DHT22;11950;51.230;4.012;2023-03-07T10:52:00;7.30;99.90
23544;DHT22;11950;51.230;4.012;2023-03-07T10:54:33;7.30;99.90
23544;DHT22;11950;51.230;4.012;2023-03-07T10:59:33;7.30;99.90
23544;DHT22;11950;51.230;4.012;2023-03-07T11:02:01;7.40;99.90
23544;DHT22;11950;51.230;4.012;2023-03-07T11:04:29;7.40;99.90
23544;DHT22;11950;51.230;4.012;2023-03-07T11:07:25;7.50;99.90
23544;DHT22;11950;51.230;4.012;2023-03-07T11:09:56;7.50;99.90
23544;DHT22;11950;51.230;4.012;2023-03-07T11:12:25;7.50;99.90
23544;DHT22;11950;51.230;4.012;2023-03-07T11:14:56;7.50;99.90
23544;DHT22;11950;51.230;4.012;2023-03-07T11:17:39;7.50;99.90
23544;DHT22;11950;51.230;4.012;2023-03-07T11:20:48;7.60;99.90
23544;DHT22;11950;51.230;4.012;2023-03-07T11:23:23;7.70;99.90
23544;DHT22;11950;51.230;4.012;2023-03-07T11:25:53;7.70;99.90
23544;DHT22;11950;51.230;4.012;2023-03-07T11:28:33;7.80;99.90
23544;DHT22;11950;51.230;4.012;2023-03-07T11:36:39;7.80;99.90
23544;DHT22;11950;51.230;4.012;2023-03-07T11:39:36;7.90;99.90
23544;DHT22;11950;51.230;4.012;2023-03-07T11:42:15;7.90;99.90
23544;DHT22;11950;51.230;4.012;2023-03-07T11:44:51;8.00;99.90
23544;DHT22;11950;51.230;4.012;2023-03-07T11:47:45;8.00;99.90
23544;DHT22;11950;51.230;4.012;2023-03-07T11:50:24;8.10;99.90
23544;DHT22;11950;51.230;4.012;2023-03-07T12:01:32;8.20;99.90
23544;DHT22;11950;51.230;4.012;2023-03-07T12:07:08;8.30;99.90
23544;DHT22;11950;51.230;4.012;2023-03-07T12:15:20;8.40;99.90
23544;DHT22;11950;51.230;4.012;2023-03-07T12:18:19;8.40;99.90
23544;DHT22;11950;51.230;4.012;2023-03-07T12:23:48;8.40;99.90
23544;DHT22;11950;51.230;4.012;2023-03-07T12:26:20;8.40;99.90
23544;DHT22;11950;51.230;4.012;2023-03-07T12:29:14;8.50;99.90
23544;DHT22;11950;51.230;4.012;2023-03-07T12:31:46;8.60;99.90
23544;DHT22;11950;51.230;4.012;2023-03-07T12:34:30;8.60;99.90
23544;DHT22;11950;51.230;4.012;2023-03-07T12:37:05;8.70;99.90
23544;DHT22;11950;51.230;4.012;2023-03-07T12:39:59;8.80;99.90
23544;DHT22;11950;51.230;4.012;2023-03-07T12:45:20;8.90;99.90
23544;DHT22;11950;51.230;4.012;2023-03-07T12:53:26;8.90;99.90
23544;DHT22;11950;51.230;4.012;2023-03-07T12:58:48;9.00;99.90
23544;DHT22;11950;51.230;4.012;2023-03-07T13:01:24;9.00;99.90
23544;DHT22;11950;51.230;4.012;2023-03-07T13:07:04;8.90;99.90
23544;DHT22;11950;51.230;4.012;2023-03-07T13:09:31;8.80;99.90
23544;DHT22;11950;51.230;4.012;2023-03-07T13:15:06;8.80;99.90
23544;DHT22;11950;51.230;4.012;2023-03-07T13:17:57;8.70;99.90
23544;DHT22;11950;51.230;4.012;2023-03-07T13:22:55;8.50;99.90
23544;DHT22;11950;51.230;4.012;2023-03-07T13:27:49;8.40;99.90
23544;DHT22;11950;51.230;4.012;2023-03-07T13:30:30;8.30;99.90
23544;DHT22;11950;51.230;4.012;2023-03-07T13:33:01;8.30;99.90
23544;DHT22;11950;51.230;4.012;2023-03-07T13:45:58;8.30;99.90
23544;DHT22;11950;51.230;4.012;2023-03-07T13:51:01;8.40;99.90
23544;DHT22;11950;51.230;4.012;2023-03-07T13:53:48;8.50;99.90
23544;DHT22;11950;51.230;4.012;2023-03-07T13:58:48;8.50;99.90
23544;DHT22;11950;51.230;4.012;2023-03-07T14:01:25;8.50;99.90
23544;DHT22;11950;51.230;4.012;2023-03-07T14:04:16;8.50;99.90
23544;DHT22;11950;51.230;4.012;2023-03-07T14:06:44;8.50;99.90
23544;DHT22;11950;51.230;4.012;2023-03-07T14:09:14;8.50;99.90
23544;DHT22;11950;51.230;4.012;2023-03-07T14:23:50;8.20;99.90
23544;DHT22;11950;51.230;4.012;2023-03-07T14:29:18;8.10;99.90
23544;DHT22;11950;51.230;4.012;2023-03-07T14:31:48;8.10;99.90
23544;DHT22;11950;51.230;4.012;2023-03-07T14:37:05;7.90;99.90
23544;DHT22;11950;51.230;4.012;2023-03-07T14:39:57;7.90;99.90
23544;DHT22;11950;51.230;4.012;2023-03-07T14:42:54;7.90;99.90
23544;DHT22;11950;51.230;4.012;2023-03-07T14:45:42;7.80;99.90
23544;DHT22;11950;51.230;4.012;2023-03-07T14:49:02;7.70;99.90
23544;DHT22;11950;51.230;4.012;2023-03-07T14:51:16;7.70;99.90
23544;DHT22;11950;51.230;4.012;2023-03-07T14:53:44;7.70;99.90
23544;DHT22;11950;51.230;4.012;2023-03-07T14:56:22;7.70;99.90
23544;DHT22;11950;51.230;4.012;2023-03-07T14:58:55;7.70;99.90
23544;DHT22;11950;51.230;4.012;2023-03-07T15:01:29;7.70;99.90
23544;DHT22;11950;51.230;4.012;2023-03-07T15:03:56;7.70;99.90
23544;DHT22;11950;51.230;4.012;2023-03-07T15:06:28;7.70;99.90
23544;DHT22;11950;51.230;4.012;2023-03-07T15:08:56;7.70;99.90
23544;DHT22;11950;51.230;4.012;2023-03-07T15:14:17;7.60;99.90
23544;DHT22;11950;51.230;4.012;2023-03-07T15:17:03;7.60;99.90
23544;DHT22;11950;51.230;4.012;2023-03-07T15:22:01;7.50;99.90
23544;DHT22;11950;51.230;4.012;2023-03-07T15:24:32;7.40;99.90
23544;DHT22;11950;51.230;4.012;2023-03-07T15:26:59;7.40;99.90
23544;DHT22;11950;51.230;4.012;2023-03-07T15:29:30;7.40;99.90
23544;DHT22;11950;51.230;4.012;2023-03-07T15:31:59;7.40;99.90
23544;DHT22;11950;51.230;4.012;2023-03-07T15:34:31;7.40;99.90
23544;DHT22;11950;51.230;4.012;2023-03-07T15:42:53;7.30;99.90
23544;DHT22;11950;51.230;4.012;2023-03-07T15:45:27;7.30;99.90
23544;DHT22;11950;51.230;4.012;2023-03-07T15:47:54;7.30;99.90
23544;DHT22;11950;51.230;4.012;2023-03-07T15:50:25;7.30;99.90
23544;DHT22;11950;51.230;4.012;2023-03-07T15:52:54;7.30;99.90
23544;DHT22;11950;51.230;4.012;2023-03-07T15:55:24;7.30;99.90
23544;DHT22;11950;51.230;4.012;2023-03-07T15:57:57;7.30;99.90
23544;DHT22;11950;51.230;4.012;2023-03-07T16:00:37;7.30;99.90
23544;DHT22;11950;51.230;4.012;2023-03-07T16:05:42;7.30;99.90
23544;DHT22;11950;51.230;4.012;2023-03-07T16:08:12;7.30;99.90
23544;DHT22;11950;51.230;4.012;2023-03-07T16:13:19;7.30;99.90
23544;DHT22;11950;51.230;4.012;2023-03-07T16:16:00;7.30;99.90
23544;DHT22;11950;51.230;4.012;2023-03-07T16:18:28;7.30;99.90
23544;DHT22;11950;51.230;4.012;2023-03-07T16:20:54;7.30;99.90
23544;DHT22;11950;51.230;4.012;2023-03-07T16:23:22;7.30;99.90
23544;DHT22;11950;51.230;4.012;2023-03-07T16:25:49;7.30;99.90
23544;DHT22;11950;51.230;4.012;2023-03-07T16:28:15;7.30;99.90
23544;DHT22;11950;51.230;4.012;2023-03-07T16:30:43;7.30;99.90
23544;DHT22;11950;51.230;4.012;2023-03-07T16:33:11;7.30;99.90
23544;DHT22;11950;51.230;4.012;2023-03-07T16:35:38;7.20;99.90
23544;DHT22;11950;51.230;4.012;2023-03-07T16:38:05;7.10;99.90
23544;DHT22;11950;51.230;4.012;2023-03-07T16:40:32;7.00;99.90
23544;DHT22;11950;51.230;4.012;2023-03-07T16:42:59;7.00;99.90
23544;DHT22;11950;51.230;4.012;2023-03-07T16:45:30;7.00;99.90
23544;DHT22;11950;51.230;4.012;2023-03-07T16:47:59;6.90;99.90
23544;DHT22;11950;51.230;4.012;2023-03-07T16:50:28;6.90;99.90
23544;DHT22;11950;51.230;4.012;2023-03-07T16:52:56;6.90;99.90
23544;DHT22;11950;51.230;4.012;2023-03-07T16:55:22;6.80;99.90
23544;DHT22;11950;51.230;4.012;2023-03-07T16:57:52;6.80;99.90
23544;DHT22;11950;51.230;4.012;2023-03-07T17:00:21;6.80;99.90
23544;DHT22;11950;51.230;4.012;2023-03-07T17:02:50;6.70;99.90
23544;DHT22;11950;51.230;4.012;2023-03-07T17:05:22;6.70;99.90
23544;DHT22;11950;51.230;4.012;2023-03-07T17:07:56;6.70;99.90
23544;DHT22;11950;51.230;4.012;2023-03-07T17:10:24;6.70;99.90
23544;DHT22;11950;51.230;4.012;2023-03-07T17:12:58;6.70;99.90
23544;DHT22;11950;51.230;4.012;2023-03-07T17:15:26;6.70;99.90
23544;DHT22;11950;51.230;4.012;2023-03-07T17:17:56;6.70;99.90
23544;DHT22;11950;51.230;4.012;2023-03-07T17:20:23;6.60;99.90
23544;DHT22;11950;51.230;4.012;2023-03-07T17:22:49;6.60;99.90
23544;DHT22;11950;51.230;4.012;2023-03-07T17:25:17;6.60;99.90
23544;DHT22;11950;51.230;4.012;2023-03-07T17:27:53;6.70;99.90
23544;DHT22;11950;51.230;4.012;2023-03-07T17:30:23;6.60;99.90
23544;DHT22;11950;51.230;4.012;2023-03-07T17:32:49;6.60;99.90
23544;DHT22;11950;51.230;4.012;2023-03-07T17:35:16;6.60;99.90
23544;DHT22;11950;51.230;4.012;2023-03-07T17:37:43;6.60;99.90
23544;DHT22;11950;51.230;4.012;2023-03-07T17:40:11;6.60;99.90
23544;DHT22;11950;51.230;4.012;2023-03-07T17:42:39;6.60;99.90
23544;DHT22;11950;51.230;4.012;2023-03-07T17:45:09;6.60;99.90
23544;DHT22;11950;51.230;4.012;2023-03-07T17:47:35;6.60;99.90
23544;DHT22;11950;51.230;4.012;2023-03-07T17:50:02;6.50;99.90
23544;DHT22;11950;51.230;4.012;2023-03-07T17:52:31;6.50;99.90
23544;DHT22;11950;51.230;4.012;2023-03-07T17:54:58;6.50;99.90
23544;DHT22;11950;51.230;4.012;2023-03-07T17:57:25;6.40;99.90
23544;DHT22;11950;51.230;4.012;2023-03-07T17:59:53;6.30;99.90
23544;DHT22;11950;51.230;4.012;2023-03-07T18:02:19;6.30;99.90
23544;DHT22;11950;51.230;4.012;2023-03-07T18:04:45;6.30;99.90
23544;DHT22;11950;51.230;4.012;2023-03-07T18:07:12;6.30;99.90
23544;DHT22;11950;51.230;4.012;2023-03-07T18:09:38;6.30;99.90